sensor_id;sensor_type;location;lat;lon;timestamp;pressure;altitude;pressure_sealevel;temperature;humidity
29417;BME280;28421;51.030;4.006;2023-09-07T00:00:18;101803.78;;;17.23;100.00
29417;BME280;28421;51.030;4.006;2023-09-07T00:02:44;101758.34;;;16.95;100.00
29417;BME280;28421;51.030;4.006;2023-09-07T00:05:09;101782.94;;;17.08;100.00
29417;BME280;28421;51.030;4.006;2023-09-07T00:07:35;101793.03;;;17.14;100.00
29417;BME280;28421;51.030;4.006;2023-09-07T00:10:02;101765.91;;;17.00;100.00
29417;BME280;28421;51.030;4.006;2023-09-07T00:12:28;101788.19;;;17.10;100.00
29417;BME280;28421;51.030;4.006;2023-09-07T00:14:54;101787.94;;;17.05;100.00
29417;BME280;28421;51.030;4.006;2023-09-07T00:17:20;101793.78;;;17.08;100.00
29417;BME280;28421;51.030;4.006;2023-09-07T00:19:46;101792.59;;;17.11;100.00
29417;BME280;28421;51.030;4.006;2023-09-07T00:22:14;101777.69;;;17.07;100.00
29417;BME280;28421;51.030;4.006;2023-09-07T00:24:40;101764.22;;;16.99;100.00
29417;BME280;28421;51.030;4.006;2023-09-07T00:27:05;101776.41;;;17.03;100.00
29417;BME280;28421;51.030;4.006;2023-09-07T00:29:34;101770.44;;;16.93;100.00
29417;BME280;28421;51.030;4.006;2023-09-07T00:32:00;101777.81;;;16.99;100.00
29417;BME280;28421;51.030;4.006;2023-09-07T00:34:26;101779.31;;;17.01;100.00
29417;BME280;28421;51.030;4.006;2023-09-07T00:36:51;101781.72;;;17.11;100.00
29417;BME280;28421;51.030;4.006;2023-09-07T00:39:17;101761.84;;;16.89;100.00
29417;BME280;28421;51.030;4.006;2023-09-07T00:41:42;101785.38;;;17.03;100.00
29417;BME280;28421;51.030;4.006;2023-09-07T00:44:08;101762.66;;;16.89;100.00
29417;BME280;28421;51.030;4.006;2023-09-07T00:46:33;101739.09;;;16.75;100.00
29417;BME280;28421;51.030;4.006;2023-09-07T00:48:59;101754.16;;;16.78;100.00
29417;BME280;28421;51.030;4.006;2023-09-07T00:51:26;101759.69;;;16.84;100.00
29417;BME280;28421;51.030;4.006;2023-09-07T00:53:52;101780.91;;;16.96;100.00
29417;BME280;28421;51.030;4.006;2023-09-07T00:56:19;101778.97;;;16.89;100.00
29417;BME280;28421;51.030;4.006;2023-09-07T00:58:44;101781.69;;;16.89;100.00
29417;BME280;28421;51.030;4.006;2023-09-07T01:01:10;101780.13;;;16.80;100.00
29417;BME280;28421;51.030;4.006;2023-09-07T01:03:36;101777.41;;;16.80;100.00
29417;BME280;28421;51.030;4.006;2023-09-07T01:06:07;101782.81;;;16.65;100.00
29417;BME280;28421;51.030;4.006;2023-09-07T01:08:54;101775.44;;;16.74;100.00
29417;BME280;28421;51.030;4.006;2023-09-07T01:11:23;101772.16;;;16.64;100.00
29417;BME280;28421;51.030;4.006;2023-09-07T01:13:50;101784.88;;;16.63;100.00
29417;BME280;28421;51.030;4.006;2023-09-07T01:16:19;101781.97;;;16.65;100.00
29417;BME280;28421;51.030;4.006;2023-09-07T01:18:46;101780.31;;;16.64;100.00
29417;BME280;28421;51.030;4.006;2023-09-07T01:21:13;101777.31;;;16.59;100.00
29417;BME280;28421;51.030;4.006;2023-09-07T01:23:43;101781.13;;;16.64;100.00
29417;BME280;28421;51.030;4.006;2023-09-07T01:26:10;101756.06;;;16.48;100.00
29417;BME280;28421;51.030;4.006;2023-09-07T01:28:36;101774.31;;;16.54;100.00
29417;BME280;28421;51.030;4.006;2023-09-07T01:31:04;101773.94;;;16.57;100.00
29417;BME280;28421;51.030;4.006;2023-09-07T01:33:30;101758.31;;;16.44;100.00
29417;BME280;28421;51.030;4.006;2023-09-07T01:35:55;101764.47;;;16.53;100.00
29417;BME280;28421;51.030;4.006;2023-09-07T01:38:21;101761.28;;;16.49;100.00
29417;BME280;28421;51.030;4.006;2023-09-07T01:40:47;101743.72;;;16.30;100.00
29417;BME280;28421;51.030;4.006;2023-09-07T01:43:13;101761.41;;;16.41;100.00
29417;BME280;28421;51.030;4.006;2023-09-07T01:45:38;101744.31;;;16.26;100.00
29417;BME280;28421;51.030;4.006;2023-09-07T01:48:08;101763.84;;;16.36;100.00
29417;BME280;28421;51.030;4.006;2023-09-07T01:50:34;101737.94;;;16.19;100.00
29417;BME280;28421;51.030;4.006;2023-09-07T01:53:00;101761.97;;;16.36;100.00
29417;BME280;28421;51.030;4.006;2023-09-07T01:55:27;101758.78;;;16.33;100.00
29417;BME280;28421;51.030;4.006;2023-09-07T01:57:53;101754.84;;;16.21;100.00
29417;BME280;28421;51.030;4.006;2023-09-07T02:00:19;101749.03;;;16.09;100.00
29417;BME280;28421;51.030;4.006;2023-09-07T02:02:44;101739.41;;;16.06;100.00
29417;BME280;28421;51.030;4.006;2023-09-07T02:05:10;101733.50;;;15.88;100.00
29417;BME280;28421;51.030;4.006;2023-09-07T02:07:35;101759.91;;;15.94;100.00
29417;BME280;28421;51.030;4.006;2023-09-07T02:10:02;101747.06;;;15.88;100.00
29417;BME280;28421;51.030;4.006;2023-09-07T02:12:29;101771.66;;;15.86;100.00
29417;BME280;28421;51.030;4.006;2023-09-07T02:14:55;101723.59;;;15.57;100.00
29417;BME280;28421;51.030;4.006;2023-09-07T02:17:21;101751.91;;;15.78;100.00
29417;BME280;28421;51.030;4.006;2023-09-07T02:19:46;101760.06;;;15.78;100.00
29417;BME280;28421;51.030;4.006;2023-09-07T02:22:12;101757.75;;;15.89;100.00
29417;BME280;28421;51.030;4.006;2023-09-07T02:24:38;101759.69;;;15.81;100.00
29417;BME280;28421;51.030;4.006;2023-09-07T02:27:04;101739.00;;;15.65;100.00
29417;BME280;28421;51.030;4.006;2023-09-07T02:29:30;101757.06;;;15.73;100.00
29417;BME280;28421;51.030;4.006;2023-09-07T02:31:55;101769.38;;;15.75;100.00
29417;BME280;28421;51.030;4.006;2023-09-07T02:34:23;101770.72;;;15.79;100.00
29417;BME280;28421;51.030;4.006;2023-09-07T02:36:48;101753.72;;;15.62;100.00
29417;BME280;28421;51.030;4.006;2023-09-07T02:39:14;101754.22;;;15.66;100.00
29417;BME280;28421;51.030;4.006;2023-09-07T02:41:39;101760.41;;;15.75;100.00
29417;BME280;28421;51.030;4.006;2023-09-07T02:44:05;101760.84;;;15.63;100.00
29417;BME280;28421;51.030;4.006;2023-09-07T02:46:31;101719.84;;;15.44;100.00
29417;BME280;28421;51.030;4.006;2023-09-07T02:48:57;101761.69;;;15.64;100.00
29417;BME280;28421;51.030;4.006;2023-09-07T02:51:24;101773.53;;;15.63;100.00
29417;BME280;28421;51.030;4.006;2023-09-07T02:53:51;101772.41;;;15.57;100.00
29417;BME280;28421;51.030;4.006;2023-09-07T02:56:17;101762.75;;;15.55;100.00
29417;BME280;28421;51.030;4.006;2023-09-07T02:58:44;101743.06;;;15.38;100.00
29417;BME280;28421;51.030;4.006;2023-09-07T03:01:11;101758.16;;;15.40;100.00
29417;BME280;28421;51.030;4.006;2023-09-07T03:03:37;101745.84;;;15.30;100.00
29417;BME280;28421;51.030;4.006;2023-09-07T03:06:13;101763.56;;;15.40;100.00
29417;BME280;28421;51.030;4.006;2023-09-07T03:08:42;101776.56;;;15.45;100.00
29417;BME280;28421;51.030;4.006;2023-09-07T03:11:09;101765.25;;;15.41;100.00
29417;BME280;28421;51.030;4.006;2023-09-07T03:13:35;101756.03;;;15.28;100.00
29417;BME280;28421;51.030;4.006;2023-09-07T03:16:03;101769.19;;;15.39;100.00
29417;BME280;28421;51.030;4.006;2023-09-07T03:18:29;101749.16;;;15.17;100.00
29417;BME280;28421;51.030;4.006;2023-09-07T03:20:58;101777.53;;;15.29;100.00
29417;BME280;28421;51.030;4.006;2023-09-07T03:23:24;101769.28;;;15.23;100.00
29417;BME280;28421;51.030;4.006;2023-09-07T03:25:49;101756.50;;;15.08;100.00
29417;BME280;28421;51.030;4.006;2023-09-07T03:28:16;101786.56;;;15.22;100.00
29417;BME280;28421;51.030;4.006;2023-09-07T03:30:42;101750.50;;;14.98;100.00
29417;BME280;28421;51.030;4.006;2023-09-07T03:33:08;101761.94;;;15.08;100.00
29417;BME280;28421;51.030;4.006;2023-09-07T03:35:34;101773.94;;;15.14;100.00
29417;BME280;28421;51.030;4.006;2023-09-07T03:37:59;101773.44;;;15.10;100.00
29417;BME280;28421;51.030;4.006;2023-09-07T03:40:25;101765.06;;;14.97;100.00
29417;BME280;28421;51.030;4.006;2023-09-07T03:42:51;101770.63;;;14.96;100.00
29417;BME280;28421;51.030;4.006;2023-09-07T03:45:17;101785.69;;;14.98;100.00
29417;BME280;28421;51.030;4.006;2023-09-07T03:47:43;101759.91;;;14.79;100.00
29417;BME280;28421;51.030;4.006;2023-09-07T03:50:11;101790.09;;;14.99;100.00
29417;BME280;28421;51.030;4.006;2023-09-07T03:52:36;101791.28;;;14.97;100.00
29417;BME280;28421;51.030;4.006;2023-09-07T03:55:03;101788.22;;;15.00;100.00
29417;BME280;28421;51.030;4.006;2023-09-07T03:57:29;101749.56;;;14.83;100.00
29417;BME280;28421;51.030;4.006;2023-09-07T03:59:56;101767.09;;;14.95;100.00
29417;BME280;28421;51.030;4.006;2023-09-07T04:02:22;101759.22;;;14.85;100.00
29417;BME280;28421;51.030;4.006;2023-09-07T04:04:49;101778.16;;;14.85;100.00
29417;BME280;28421;51.030;4.006;2023-09-07T04:07:15;101783.44;;;14.79;100.00
29417;BME280;28421;51.030;4.006;2023-09-07T04:09:42;101779.16;;;14.84;100.00
29417;BME280;28421;51.030;4.006;2023-09-07T04:12:09;101774.81;;;14.75;100.00
29417;BME280;28421;51.030;4.006;2023-09-07T04:14:34;101790.56;;;14.72;100.00
29417;BME280;28421;51.030;4.006;2023-09-07T04:17:00;101790.25;;;14.66;100.00
29417;BME280;28421;51.030;4.006;2023-09-07T04:19:26;101787.56;;;14.58;100.00
29417;BME280;28421;51.030;4.006;2023-09-07T04:21:52;101718.16;;;14.26;100.00
29417;BME280;28421;51.030;4.006;2023-09-07T04:24:18;101787.22;;;14.61;100.00
29417;BME280;28421;51.030;4.006;2023-09-07T04:26:43;101769.81;;;14.64;100.00
29417;BME280;28421;51.030;4.006;2023-09-07T04:29:09;101784.16;;;14.73;100.00
29417;BME280;28421;51.030;4.006;2023-09-07T04:31:36;101773.34;;;14.64;100.00
29417;BME280;28421;51.030;4.006;2023-09-07T04:34:01;101754.28;;;14.50;100.00
29417;BME280;28421;51.030;4.006;2023-09-07T04:36:28;101759.84;;;14.56;100.00
29417;BME280;28421;51.030;4.006;2023-09-07T04:38:54;101785.19;;;14.63;100.00
29417;BME280;28421;51.030;4.006;2023-09-07T04:41:19;101795.94;;;14.80;100.00
29417;BME280;28421;51.030;4.006;2023-09-07T04:43:45;101763.53;;;14.63;100.00
29417;BME280;28421;51.030;4.006;2023-09-07T04:46:13;101778.19;;;14.77;100.00
29417;BME280;28421;51.030;4.006;2023-09-07T04:48:40;101780.22;;;14.75;100.00
29417;BME280;28421;51.030;4.006;2023-09-07T04:51:08;101796.44;;;14.83;100.00
29417;BME280;28421;51.030;4.006;2023-09-07T04:53:36;101793.91;;;14.82;100.00
29417;BME280;28421;51.030;4.006;2023-09-07T04:56:03;101798.97;;;14.85;100.00
29417;BME280;28421;51.030;4.006;2023-09-07T04:58:30;101728.25;;;14.40;100.00
29417;BME280;28421;51.030;4.006;2023-09-07T05:01:06;101794.25;;;14.79;100.00
29417;BME280;28421;51.030;4.006;2023-09-07T05:03:32;101769.13;;;14.62;100.00
29417;BME280;28421;51.030;4.006;2023-09-07T05:05:59;101796.13;;;14.78;100.00
29417;BME280;28421;51.030;4.006;2023-09-07T05:08:25;101791.25;;;14.74;100.00
29417;BME280;28421;51.030;4.006;2023-09-07T05:11:01;101793.94;;;14.74;100.00
29417;BME280;28421;51.030;4.006;2023-09-07T05:13:28;101787.56;;;14.58;100.00
29417;BME280;28421;51.030;4.006;2023-09-07T05:15:55;101804.28;;;14.70;100.00
29417;BME280;28421;51.030;4.006;2023-09-07T05:18:22;101806.16;;;14.70;100.00
29417;BME280;28421;51.030;4.006;2023-09-07T05:20:48;101786.56;;;14.59;100.00
29417;BME280;28421;51.030;4.006;2023-09-07T05:23:15;101798.22;;;14.68;100.00
29417;BME280;28421;51.030;4.006;2023-09-07T05:25:47;101800.06;;;14.67;100.00
29417;BME280;28421;51.030;4.006;2023-09-07T05:28:14;101727.34;;;14.17;100.00
29417;BME280;28421;51.030;4.006;2023-09-07T05:30:41;101754.00;;;14.28;100.00
29417;BME280;28421;51.030;4.006;2023-09-07T05:33:08;101744.88;;;14.29;100.00
29417;BME280;28421;51.030;4.006;2023-09-07T05:35:34;101776.97;;;14.40;100.00
29417;BME280;28421;51.030;4.006;2023-09-07T05:38:00;101784.91;;;14.50;100.00
29417;BME280;28421;51.030;4.006;2023-09-07T05:40:25;101765.97;;;14.42;100.00
29417;BME280;28421;51.030;4.006;2023-09-07T05:42:51;101809.50;;;14.72;100.00
29417;BME280;28421;51.030;4.006;2023-09-07T05:45:17;101820.69;;;14.77;100.00
29417;BME280;28421;51.030;4.006;2023-09-07T05:47:42;101821.63;;;14.84;100.00
29417;BME280;28421;51.030;4.006;2023-09-07T05:50:08;101813.75;;;14.74;100.00
29417;BME280;28421;51.030;4.006;2023-09-07T05:52:34;101824.19;;;14.85;100.00
29417;BME280;28421;51.030;4.006;2023-09-07T05:54:59;101816.19;;;14.92;100.00
29417;BME280;28421;51.030;4.006;2023-09-07T05:57:26;101805.03;;;14.87;100.00
29417;BME280;28421;51.030;4.006;2023-09-07T05:59:51;101802.03;;;14.82;100.00
29417;BME280;28421;51.030;4.006;2023-09-07T06:02:17;101822.63;;;14.91;100.00
29417;BME280;28421;51.030;4.006;2023-09-07T06:04:43;101800.66;;;14.86;100.00
29417;BME280;28421;51.030;4.006;2023-09-07T06:07:09;101818.84;;;15.00;100.00
29417;BME280;28421;51.030;4.006;2023-09-07T06:09:34;101826.94;;;15.08;100.00
29417;BME280;28421;51.030;4.006;2023-09-07T06:12:02;101825.56;;;15.12;100.00
29417;BME280;28421;51.030;4.006;2023-09-07T06:14:28;101818.75;;;15.16;100.00
29417;BME280;28421;51.030;4.006;2023-09-07T06:16:54;101829.38;;;15.26;100.00
29417;BME280;28421;51.030;4.006;2023-09-07T06:19:19;101814.13;;;15.25;100.00
29417;BME280;28421;51.030;4.006;2023-09-07T06:21:45;101821.38;;;15.33;100.00
29417;BME280;28421;51.030;4.006;2023-09-07T06:24:11;101820.47;;;15.40;100.00
29417;BME280;28421;51.030;4.006;2023-09-07T06:26:36;101817.91;;;15.47;100.00
29417;BME280;28421;51.030;4.006;2023-09-07T06:29:03;101805.84;;;15.50;100.00
29417;BME280;28421;51.030;4.006;2023-09-07T06:31:29;101804.91;;;15.65;100.00
29417;BME280;28421;51.030;4.006;2023-09-07T06:33:55;101820.06;;;15.75;100.00
29417;BME280;28421;51.030;4.006;2023-09-07T06:36:20;101828.81;;;15.85;100.00
29417;BME280;28421;51.030;4.006;2023-09-07T06:38:46;101822.84;;;15.89;100.00
29417;BME280;28421;51.030;4.006;2023-09-07T06:41:11;101828.00;;;15.99;100.00
29417;BME280;28421;51.030;4.006;2023-09-07T06:43:38;101824.00;;;16.10;100.00
29417;BME280;28421;51.030;4.006;2023-09-07T06:46:07;101811.56;;;16.15;100.00
29417;BME280;28421;51.030;4.006;2023-09-07T06:48:34;101818.75;;;16.38;100.00
29417;BME280;28421;51.030;4.006;2023-09-07T06:51:06;101818.50;;;16.48;100.00
29417;BME280;28421;51.030;4.006;2023-09-07T06:53:33;101799.78;;;16.53;100.00
29417;BME280;28421;51.030;4.006;2023-09-07T06:55:59;101824.84;;;16.70;100.00
29417;BME280;28421;51.030;4.006;2023-09-07T06:58:26;101802.94;;;16.71;100.00
29417;BME280;28421;51.030;4.006;2023-09-07T07:00:52;101821.66;;;16.96;100.00
29417;BME280;28421;51.030;4.006;2023-09-07T07:03:18;101816.31;;;17.02;100.00
29417;BME280;28421;51.030;4.006;2023-09-07T07:05:43;101821.72;;;17.17;100.00
29417;BME280;28421;51.030;4.006;2023-09-07T07:08:09;101823.75;;;17.30;100.00
29417;BME280;28421;51.030;4.006;2023-09-07T07:10:35;101817.78;;;17.41;100.00
29417;BME280;28421;51.030;4.006;2023-09-07T07:13:01;101824.38;;;17.53;100.00
29417;BME280;28421;51.030;4.006;2023-09-07T07:15:27;101821.22;;;17.71;100.00
29417;BME280;28421;51.030;4.006;2023-09-07T07:17:52;101811.47;;;17.77;100.00
29417;BME280;28421;51.030;4.006;2023-09-07T07:20:18;101824.78;;;17.93;100.00
29417;BME280;28421;51.030;4.006;2023-09-07T07:22:43;101829.50;;;18.06;100.00
29417;BME280;28421;51.030;4.006;2023-09-07T07:25:12;101814.91;;;18.13;100.00
29417;BME280;28421;51.030;4.006;2023-09-07T07:27:38;101826.94;;;18.32;100.00
29417;BME280;28421;51.030;4.006;2023-09-07T07:30:04;101824.72;;;18.43;100.00
29417;BME280;28421;51.030;4.006;2023-09-07T07:32:30;101821.25;;;18.62;100.00
29417;BME280;28421;51.030;4.006;2023-09-07T07:34:55;101806.59;;;18.63;100.00
29417;BME280;28421;51.030;4.006;2023-09-07T07:37:22;101800.81;;;18.73;100.00
29417;BME280;28421;51.030;4.006;2023-09-07T07:39:48;101827.97;;;19.07;99.84
29417;BME280;28421;51.030;4.006;2023-09-07T07:42:13;101830.34;;;19.24;99.28
29417;BME280;28421;51.030;4.006;2023-09-07T07:44:40;101819.66;;;19.35;98.46
29417;BME280;28421;51.030;4.006;2023-09-07T07:47:05;101811.50;;;19.49;94.91
29417;BME280;28421;51.030;4.006;2023-09-07T07:49:31;101829.63;;;19.63;95.13
29417;BME280;28421;51.030;4.006;2023-09-07T07:51:58;101821.03;;;19.66;94.95
29417;BME280;28421;51.030;4.006;2023-09-07T07:54:24;101815.78;;;19.84;94.36
29417;BME280;28421;51.030;4.006;2023-09-07T07:56:51;101814.09;;;19.97;93.38
29417;BME280;28421;51.030;4.006;2023-09-07T07:59:17;101811.16;;;20.11;91.63
29417;BME280;28421;51.030;4.006;2023-09-07T08:01:42;101810.69;;;20.34;91.26
29417;BME280;28421;51.030;4.006;2023-09-07T08:04:08;101804.34;;;20.47;90.91
29417;BME280;28421;51.030;4.006;2023-09-07T08:06:34;101803.31;;;20.55;89.75
29417;BME280;28421;51.030;4.006;2023-09-07T08:09:00;101814.59;;;20.78;88.14
29417;BME280;28421;51.030;4.006;2023-09-07T08:11:26;101800.88;;;20.85;88.13
29417;BME280;28421;51.030;4.006;2023-09-07T08:13:53;101803.09;;;21.01;86.20
29417;BME280;28421;51.030;4.006;2023-09-07T08:16:18;101806.56;;;21.22;86.04
29417;BME280;28421;51.030;4.006;2023-09-07T08:18:44;101809.00;;;21.43;84.16
29417;BME280;28421;51.030;4.006;2023-09-07T08:21:14;101802.22;;;21.52;80.83
29417;BME280;28421;51.030;4.006;2023-09-07T08:23:40;101802.22;;;21.52;78.23
29417;BME280;28421;51.030;4.006;2023-09-07T08:26:05;101813.00;;;21.72;80.25
29417;BME280;28421;51.030;4.006;2023-09-07T08:28:32;101804.31;;;21.82;80.84
29417;BME280;28421;51.030;4.006;2023-09-07T08:30:58;101800.81;;;21.93;80.51
29417;BME280;28421;51.030;4.006;2023-09-07T08:33:24;101809.09;;;22.12;78.01
29417;BME280;28421;51.030;4.006;2023-09-07T08:35:56;101804.03;;;22.15;71.88
29417;BME280;28421;51.030;4.006;2023-09-07T08:38:22;101798.84;;;22.25;72.92
29417;BME280;28421;51.030;4.006;2023-09-07T08:40:53;101792.09;;;22.28;73.06
29417;BME280;28421;51.030;4.006;2023-09-07T08:43:20;101803.59;;;22.55;73.22
29417;BME280;28421;51.030;4.006;2023-09-07T08:45:50;101808.16;;;22.61;71.44
29417;BME280;28421;51.030;4.006;2023-09-07T08:48:17;101795.59;;;22.72;73.27
29417;BME280;28421;51.030;4.006;2023-09-07T08:50:45;101806.63;;;22.83;70.98
29417;BME280;28421;51.030;4.006;2023-09-07T08:53:18;101795.13;;;22.93;73.22
29417;BME280;28421;51.030;4.006;2023-09-07T08:55:45;101798.69;;;23.12;71.63
29417;BME280;28421;51.030;4.006;2023-09-07T08:58:11;101788.34;;;23.26;73.18
29417;BME280;28421;51.030;4.006;2023-09-07T09:00:37;101785.88;;;23.36;69.53
29417;BME280;28421;51.030;4.006;2023-09-07T09:03:03;101788.66;;;23.48;71.07
29417;BME280;28421;51.030;4.006;2023-09-07T09:05:30;101787.13;;;23.64;71.60
29417;BME280;28421;51.030;4.006;2023-09-07T09:08:05;101786.22;;;23.70;70.28
29417;BME280;28421;51.030;4.006;2023-09-07T09:10:31;101796.50;;;23.86;67.23
29417;BME280;28421;51.030;4.006;2023-09-07T09:12:57;101787.19;;;23.99;65.92
29417;BME280;28421;51.030;4.006;2023-09-07T09:15:25;101770.69;;;23.75;62.54
29417;BME280;28421;51.030;4.006;2023-09-07T09:17:53;101794.09;;;24.13;66.39
29417;BME280;28421;51.030;4.006;2023-09-07T09:20:25;101797.56;;;24.09;62.37
29417;BME280;28421;51.030;4.006;2023-09-07T09:22:54;101788.59;;;24.25;63.30
29417;BME280;28421;51.030;4.006;2023-09-07T09:25:20;101792.81;;;24.27;61.46
29417;BME280;28421;51.030;4.006;2023-09-07T09:27:49;101793.19;;;24.43;63.33
29417;BME280;28421;51.030;4.006;2023-09-07T09:30:15;101785.41;;;24.51;63.38
29417;BME280;28421;51.030;4.006;2023-09-07T09:32:44;101786.69;;;24.61;60.72
29417;BME280;28421;51.030;4.006;2023-09-07T09:35:10;101780.06;;;24.73;61.06
29417;BME280;28421;51.030;4.006;2023-09-07T09:37:46;101788.06;;;24.75;62.88
29417;BME280;28421;51.030;4.006;2023-09-07T09:40:13;101777.84;;;24.87;62.92
29417;BME280;28421;51.030;4.006;2023-09-07T09:42:41;101787.25;;;25.03;62.75
29417;BME280;28421;51.030;4.006;2023-09-07T09:45:07;101779.09;;;25.08;62.64
29417;BME280;28421;51.030;4.006;2023-09-07T09:47:38;101771.53;;;24.87;60.28
29417;BME280;28421;51.030;4.006;2023-09-07T09:50:06;101770.63;;;25.10;65.16
29417;BME280;28421;51.030;4.006;2023-09-07T09:52:34;101776.47;;;25.13;60.40
29417;BME280;28421;51.030;4.006;2023-09-07T09:55:00;101777.09;;;25.32;64.89
29417;BME280;28421;51.030;4.006;2023-09-07T09:57:25;101760.63;;;25.20;62.12
29417;BME280;28421;51.030;4.006;2023-09-07T09:59:53;101769.44;;;25.34;60.54
29417;BME280;28421;51.030;4.006;2023-09-07T10:02:19;101778.00;;;25.54;64.57
29417;BME280;28421;51.030;4.006;2023-09-07T10:04:45;101778.13;;;25.60;64.06
29417;BME280;28421;51.030;4.006;2023-09-07T10:07:11;101777.38;;;25.47;58.92
29417;BME280;28421;51.030;4.006;2023-09-07T10:09:38;101777.88;;;25.61;59.94
29417;BME280;28421;51.030;4.006;2023-09-07T10:12:04;101763.25;;;25.44;62.01
29417;BME280;28421;51.030;4.006;2023-09-07T10:14:40;101755.81;;;25.44;57.96
29417;BME280;28421;51.030;4.006;2023-09-07T10:17:06;101755.34;;;25.47;60.13
29417;BME280;28421;51.030;4.006;2023-09-07T10:19:32;101767.25;;;25.70;62.90
29417;BME280;28421;51.030;4.006;2023-09-07T10:22:01;101763.63;;;25.81;58.91
29417;BME280;28421;51.030;4.006;2023-09-07T10:24:33;101746.41;;;25.91;60.77
29417;BME280;28421;51.030;4.006;2023-09-07T10:27:03;101758.34;;;25.96;58.13
29417;BME280;28421;51.030;4.006;2023-09-07T10:29:51;101757.25;;;25.97;59.32
29417;BME280;28421;51.030;4.006;2023-09-07T10:32:19;101764.84;;;25.90;56.33
29417;BME280;28421;51.030;4.006;2023-09-07T10:34:45;101764.69;;;25.97;58.64
29417;BME280;28421;51.030;4.006;2023-09-07T10:37:11;101761.25;;;26.07;57.34
29417;BME280;28421;51.030;4.006;2023-09-07T10:39:43;101743.53;;;26.02;57.68
29417;BME280;28421;51.030;4.006;2023-09-07T10:42:20;101751.94;;;26.30;59.58
29417;BME280;28421;51.030;4.006;2023-09-07T10:44:46;101746.84;;;26.43;59.74
29417;BME280;28421;51.030;4.006;2023-09-07T10:47:12;101745.97;;;26.38;58.76
29417;BME280;28421;51.030;4.006;2023-09-07T10:49:37;101731.28;;;26.54;58.97
29417;BME280;28421;51.030;4.006;2023-09-07T10:52:03;101733.56;;;26.40;57.69
29417;BME280;28421;51.030;4.006;2023-09-07T10:54:29;101753.94;;;26.56;58.46
29417;BME280;28421;51.030;4.006;2023-09-07T10:56:54;101750.34;;;26.56;55.30
29417;BME280;28421;51.030;4.006;2023-09-07T10:59:23;101743.75;;;26.57;57.37
29417;BME280;28421;51.030;4.006;2023-09-07T11:01:48;101739.56;;;26.76;57.21
29417;BME280;28421;51.030;4.006;2023-09-07T11:04:14;101750.81;;;26.96;58.61
29417;BME280;28421;51.030;4.006;2023-09-07T11:06:42;101728.19;;;26.99;56.52
29417;BME280;28421;51.030;4.006;2023-09-07T11:09:09;101746.31;;;27.12;56.75
29417;BME280;28421;51.030;4.006;2023-09-07T11:11:36;101736.00;;;27.08;54.28
29417;BME280;28421;51.030;4.006;2023-09-07T11:14:03;101738.22;;;27.06;52.86
29417;BME280;28421;51.030;4.006;2023-09-07T11:16:30;101738.19;;;26.78;52.55
29417;BME280;28421;51.030;4.006;2023-09-07T11:18:56;101733.22;;;26.75;53.04
29417;BME280;28421;51.030;4.006;2023-09-07T11:21:22;101709.66;;;26.68;52.38
29417;BME280;28421;51.030;4.006;2023-09-07T11:23:48;101718.72;;;26.90;54.10
29417;BME280;28421;51.030;4.006;2023-09-07T11:26:14;101715.84;;;27.07;54.12
29417;BME280;28421;51.030;4.006;2023-09-07T11:28:45;101724.06;;;27.24;54.95
29417;BME280;28421;51.030;4.006;2023-09-07T11:31:11;101727.63;;;27.24;56.16
29417;BME280;28421;51.030;4.006;2023-09-07T11:33:36;101712.84;;;27.09;52.88
29417;BME280;28421;51.030;4.006;2023-09-07T11:36:03;101704.47;;;27.25;53.01
29417;BME280;28421;51.030;4.006;2023-09-07T11:38:34;101720.63;;;27.44;53.63
29417;BME280;28421;51.030;4.006;2023-09-07T11:41:01;101708.31;;;27.57;53.14
29417;BME280;28421;51.030;4.006;2023-09-07T11:43:26;101705.00;;;27.60;51.75
29417;BME280;28421;51.030;4.006;2023-09-07T11:45:52;101711.66;;;27.59;51.71
29417;BME280;28421;51.030;4.006;2023-09-07T11:48:17;101716.69;;;27.67;49.81
29417;BME280;28421;51.030;4.006;2023-09-07T11:50:43;101711.31;;;27.87;50.66
29417;BME280;28421;51.030;4.006;2023-09-07T11:53:09;101717.47;;;27.99;50.57
29417;BME280;28421;51.030;4.006;2023-09-07T11:55:35;101714.16;;;28.03;51.12
29417;BME280;28421;51.030;4.006;2023-09-07T11:58:02;101712.50;;;28.07;49.58
29417;BME280;28421;51.030;4.006;2023-09-07T12:00:27;101706.88;;;27.86;48.60
29417;BME280;28421;51.030;4.006;2023-09-07T12:02:54;101707.16;;;27.85;50.13
29417;BME280;28421;51.030;4.006;2023-09-07T12:05:20;101699.72;;;27.90;50.78
29417;BME280;28421;51.030;4.006;2023-09-07T12:07:45;101692.72;;;27.78;48.43
29417;BME280;28421;51.030;4.006;2023-09-07T12:10:11;101687.59;;;27.96;50.04
29417;BME280;28421;51.030;4.006;2023-09-07T12:12:42;101688.19;;;28.04;49.50
29417;BME280;28421;51.030;4.006;2023-09-07T12:15:09;101700.41;;;28.18;50.56
29417;BME280;28421;51.030;4.006;2023-09-07T12:17:37;101681.06;;;28.18;47.15
29417;BME280;28421;51.030;4.006;2023-09-07T12:20:02;101683.31;;;28.31;49.67
29417;BME280;28421;51.030;4.006;2023-09-07T12:22:30;101690.59;;;28.42;47.74
29417;BME280;28421;51.030;4.006;2023-09-07T12:24:56;101679.00;;;28.45;48.35
29417;BME280;28421;51.030;4.006;2023-09-07T12:27:21;101679.00;;;28.61;48.91
29417;BME280;28421;51.030;4.006;2023-09-07T12:29:47;101679.59;;;28.68;48.32
29417;BME280;28421;51.030;4.006;2023-09-07T12:32:13;101674.88;;;28.63;48.37
29417;BME280;28421;51.030;4.006;2023-09-07T12:34:39;101666.53;;;28.43;45.47
29417;BME280;28421;51.030;4.006;2023-09-07T12:37:05;101667.34;;;28.43;47.13
29417;BME280;28421;51.030;4.006;2023-09-07T12:39:31;101661.00;;;28.48;46.72